Time;durP1;ratioP1;P1;durP2;ratioP2;P2;SDS_P1;SDS_P2;PMS_P1;PMS_P2;Temp;Humidity;BMP_temperature;BMP_pressure;BME280_temperature;BME280_humidity;BME280_pressure;Samples;Min_cycle;Max_cycle;Signal;HPM_P1;HPM_P2
2023/01/03 00:01:09;;;;;;;;;;;;;;;;;;;;;
2023/01/03 00:03:48;;;;;;;;;;;;;;;;;;;;;
2023/01/03 00:06:48;;;;;;;0.10;0.10;;;5.20;99.90;;;;;;6217325;23;20013;-93
2023/01/03 00:10:20;;;;;;;0.28;0.10;;;5.20;99.90;;;;;;6208950;23;20047;-92
2023/01/03 00:13:21;;;;;;;;;;;;;;;;;;;;;
2023/01/03 00:16:49;;;;;;;;;;;;;;;;;;;;;
2023/01/03 00:19:30;;;;;;;0.95;0.52;;;5.10;99.90;;;;;;6210068;23;20019;-92
2023/01/03 00:22:34;;;;;;;;;;;;;;;;;;;;;
2023/01/03 00:25:49;;;;;;;0.00;0.00;;;5.10;99.90;;;;;;6193850;23;20094;-92
2023/01/03 00:28:38;;;;;;;0.08;0.00;;;5.00;99.90;;;;;;6180850;23;20016;-92
2023/01/03 00:31:19;;;;;;;0.10;0.10;;;5.20;99.90;;;;;;6217715;23;20012;-92
2023/01/03 00:34:16;;;;;;;0.73;0.30;;;5.00;99.90;;;;;;6191977;23;20016;-92
2023/01/03 00:36:53;;;;;;;0.00;0.00;;;5.00;99.90;;;;;;6210672;23;20017;-92
2023/01/03 00:43:27;;;;;;;;;;;;;;;;;;;;;
2023/01/03 00:45:15;;;;;;;0.10;0.10;;;4.90;99.90;;;;;;6194096;23;20017;-93
2023/01/03 00:48:05;;;;;;;0.40;0.13;;;4.90;99.90;;;;;;6192223;23;20052;-92
2023/01/03 00:53:38;;;;;;;0.00;0.00;;;4.80;99.90;;;;;;6206870;23;20020;-92
2023/01/03 00:56:19;;;;;;;0.98;0.32;;;4.80;99.90;;;;;;6192985;23;20017;-92
2023/01/03 00:59:09;;;;;;;;;;;;;;;;;;;;;
2023/01/03 01:02:04;;;;;;;0.00;0.00;;;4.80;99.90;;;;;;6223857;23;20072;-92
2023/01/03 01:04:54;;;;;;;0.00;0.00;;;4.90;99.90;;;;;;6199216;23;20090;-92
2023/01/03 01:07:29;;;;;;;0.10;0.08;;;4.70;99.90;;;;;;6154135;23;20103;-92
2023/01/03 01:10:18;;;;;;;;;;;;;;;;;;;;;
2023/01/03 01:13:05;;;;;;;0.17;0.17;;;4.70;99.90;;;;;;6178661;23;20020;-92
2023/01/03 01:15:49;;;;;;;0.00;0.00;;;4.70;99.90;;;;;;6199811;23;20016;-92
2023/01/03 01:18:27;;;;;;;0.13;0.13;;;4.60;99.90;;;;;;6200332;23;20020;-92
2023/01/03 01:21:18;;;;;;;0.00;0.00;;;4.50;99.90;;;;;;6223415;23;20023;-92
2023/01/03 01:26:58;;;;;;;0.13;0.13;;;4.80;99.90;;;;;;6224246;23;20043;-92
2023/01/03 01:29:27;;;;;;;0.93;0.20;;;4.50;99.90;;;;;;6198895;23;20027;-92
2023/01/03 01:31:58;;;;;;;0.17;0.13;;;4.50;99.90;;;;;;6224044;23;20012;-92
2023/01/03 01:34:42;;;;;;;0.28;0.28;;;4.30;99.90;;;;;;6174044;23;20022;-93
2023/01/03 01:37:23;;;;;;;;;;;;;;;;;;;;;
2023/01/03 01:40:08;;;;;;;;;;;;;;;;;;;;;
2023/01/03 01:45:45;;;;;;;;;;;;;;;;;;;;;
2023/01/03 01:48:18;;;;;;;0.20;0.20;;;4.40;99.90;;;;;;6224412;23;20533;-92
2023/01/03 01:50:48;;;;;;;0.00;0.00;;;4.30;99.90;;;;;;6198803;23;20020;-92
2023/01/03 01:56:35;;;;;;;0.65;0.45;;;4.30;99.90;;;;;;6181146;23;20020;-92
2023/01/03 01:59:22;;;;;;;0.38;0.20;;;4.30;99.90;;;;;;6197616;23;20052;-92
2023/01/03 02:02:08;;;;;;;0.52;0.35;;;4.60;99.90;;;;;;6198131;23;20031;-92
2023/01/03 02:04:43;;;;;;;0.45;0.10;;;4.20;99.90;;;;;;6198978;23;20158;-92
2023/01/03 02:07:33;;;;;;;;;;;;;;;;;;;;;
2023/01/03 02:10:12;;;;;;;0.75;0.35;;;4.20;99.90;;;;;;6230974;23;20043;-92
2023/01/03 02:13:16;;;;;;;0.03;0.03;;;4.20;99.90;;;;;;6198936;23;20070;-92
2023/01/03 02:16:12;;;;;;;;;;;;;;;;;;;;;
2023/01/03 02:19:01;;;;;;;0.10;0.00;;;4.20;99.90;;;;;;6223796;23;20071;-92
2023/01/03 02:22:15;;;;;;;0.47;0.22;;;4.20;99.90;;;;;;6199087;23;20098;-92
2023/01/03 02:25:01;;;;;;;;;;;;;;;;;;;;;
2023/01/03 02:27:52;;;;;;;0.10;0.10;;;4.10;99.90;;;;;;6222928;23;20094;-92
2023/01/03 02:30:55;;;;;;;0.00;0.00;;;4.10;99.90;;;;;;6223278;23;20047;-92
2023/01/03 02:33:52;;;;;;;;;;;;;;;;;;;;;
2023/01/03 02:36:41;;;;;;;0.75;0.55;;;4.20;99.90;;;;;;6223277;23;20016;-92
2023/01/03 02:39:36;;;;;;;0.35;0.35;;;4.00;99.90;;;;;;6198224;23;20103;-92
2023/01/03 02:45:49;;;;;;;;;;;;;;;;;;;;;
2023/01/03 02:48:51;;;;;;;;;;;;;;;;;;;;;
2023/01/03 02:52:01;;;;;;;0.03;0.03;;;3.90;99.90;;;;;;6163853;23;20019;-92
2023/01/03 02:55:19;;;;;;;0.00;0.00;;;4.40;99.90;;;;;;6190616;23;20020;-92
2023/01/03 02:58:11;;;;;;;0.20;0.20;;;3.90;99.90;;;;;;6184847;23;20016;-92
2023/01/03 03:01:04;;;;;;;;;;;;;;;;;;;;;
2023/01/03 03:04:03;;;;;;;;;;;;;;;;;;;;;
2023/01/03 03:06:59;;;;;;;0.00;0.00;;;3.80;99.90;;;;;;6220528;23;20513;-92
2023/01/03 03:13:11;;;;;;;0.13;0.13;;;3.80;99.90;;;;;;6197356;23;20020;-92
2023/01/03 03:15:39;;;;;;;0.40;0.40;;;3.80;99.90;;;;;;6223109;23;20099;-91
2023/01/03 03:18:17;;;;;;;1.05;0.85;;;3.80;99.90;;;;;;6221395;23;20016;-91
2023/01/03 03:30:08;;;;;;;0.45;0.17;;;3.70;99.90;;;;;;6225308;22;20008;-92
2023/01/03 03:33:00;;;;;;;0.38;0.10;;;3.70;99.90;;;;;;6221206;23;20031;-92
2023/01/03 03:44:59;;;;;;;0.35;0.35;;;3.70;99.90;;;;;;6215711;23;20024;-92
2023/01/03 03:45:26;;;;;;;0.00;0.00;;;3.60;99.90;;;;;;6222248;23;20004;-92
2023/01/03 03:48:15;;;;;;;0.30;0.30;;;3.60;99.90;;;;;;6222966;23;20385;-92
2023/01/03 03:51:38;;;;;;;;;;;;;;;;;;;;;
2023/01/03 03:54:37;;;;;;;;;;;;;;;;;;;;;
2023/01/03 03:57:25;;;;;;;;;;;;;;;;;;;;;
2023/01/03 04:00:12;;;;;;;;;;;;;;;;;;;;;
2023/01/03 04:03:05;;;;;;;0.25;0.25;;;3.80;99.90;;;;;;6222424;23;20024;-92
2023/01/03 04:06:01;;;;;;;1.58;0.70;;;3.50;99.90;;;;;;6198754;23;20020;-92
2023/01/03 04:11:56;;;;;;;0.30;0.30;;;3.50;99.90;;;;;;6222664;23;20074;-92
2023/01/03 04:14:50;;;;;;;0.10;0.05;;;3.60;99.90;;;;;;6174113;23;20039;-92
2023/01/03 04:18:01;;;;;;;;;;;;;;;;;;;;;
2023/01/03 04:20:47;;;;;;;19.48;0.98;;;3.80;99.90;;;;;;6222376;23;20020;-93
2023/01/03 04:24:04;;;;;;;;;;;;;;;;;;;;;
2023/01/03 04:29:54;;;;;;;0.10;0.10;;;3.60;99.90;;;;;;6203069;23;20069;-92
2023/01/03 04:33:04;;;;;;;;;;;;;;;;;;;;;
2023/01/03 04:36:01;;;;;;;1.40;0.55;;;3.50;99.90;;;;;;6222388;23;20454;-93
2023/01/03 04:39:14;;;;;;;0.00;0.00;;;3.40;99.90;;;;;;6205958;23;20529;-92
2023/01/03 04:42:03;;;;;;;;;;;;;;;;;;;;;
2023/01/03 04:44:36;;;;;;;0.08;0.08;;;3.50;99.90;;;;;;6224667;23;20012;-92
2023/01/03 04:47:33;;;;;;;1.88;0.52;;;3.50;99.90;;;;;;6224726;23;20091;-93
2023/01/03 04:50:26;;;;;;;;;;;;;;;;;;;;;
2023/01/03 04:56:38;;;;;;;;;;;;;;;;;;;;;
2023/01/03 04:59:34;;;;;;;0.68;0.68;;;3.50;99.90;;;;;;6221727;23;20012;-92
2023/01/03 05:05:51;;;;;;;;;;;;;;;;;;;;;
2023/01/03 05:08:27;;;;;;;0.17;0.17;;;3.40;99.90;;;;;;6224923;23;20042;-93
2023/01/03 05:11:32;;;;;;;;;;;;;;;;;;;;;
2023/01/03 05:14:15;;;;;;;;;;;;;;;;;;;;;
2023/01/03 05:17:32;;;;;;;;;;;;;;;;;;;;;
2023/01/03 05:26:41;;;;;;;0.30;0.30;;;4.20;99.90;;;;;;6101341;23;20074;-92
2023/01/03 05:29:42;;;;;;;1.50;0.32;;;3.40;99.90;;;;;;6200677;23;20047;-92
2023/01/03 05:32:23;;;;;;;;;;;;;;;;;;;;;
2023/01/03 05:35:06;;;;;;;4.63;0.47;;;3.30;99.90;;;;;;6223617;23;20023;-93
2023/01/03 05:37:38;;;;;;;1.00;0.40;;;3.30;99.90;;;;;;6175991;23;20447;-92
2023/01/03 05:43:36;;;;;;;;;;;;;;;;;;;;;
2023/01/03 05:46:38;;;;;;;;;;;;;;;;;;;;;
2023/01/03 05:49:37;;;;;;;;;;;;;;;;;;;;;
2023/01/03 05:52:26;;;;;;;;;;;;;;;;;;;;;
2023/01/03 05:55:04;;;;;;;;;;;;;;;;;;;;;
2023/01/03 05:57:46;;;;;;;;;;;;;;;;;;;;;
2023/01/03 06:01:01;;;;;;;2.40;1.08;;;3.70;99.90;;;;;;6199750;23;20443;-92
2023/01/03 06:03:48;;;;;;;;;;;;;;;;;;;;;
2023/01/03 06:06:57;;;;;;;2.83;1.35;;;3.20;99.90;;;;;;6181083;23;20484;-93
2023/01/03 06:09:33;;;;;;;0.22;0.20;;;3.10;99.90;;;;;;6198496;23;20020;-93
2023/01/03 06:12:29;;;;;;;0.00;0.00;;;3.50;99.90;;;;;;6199760;23;20016;-93
2023/01/03 06:15:21;;;;;;;;;;;;;;;;;;;;;
2023/01/03 06:18:12;;;;;;;8.50;0.80;;;3.10;99.90;;;;;;6222713;23;20020;-93
2023/01/03 06:23:34;;;;;;;0.00;0.00;;;3.80;99.90;;;;;;6186185;23;20020;-93
2023/01/03 06:26:12;;;;;;;0.93;0.85;;;3.60;99.90;;;;;;6174132;23;20099;-93
2023/01/03 06:29:01;;;;;;;0.10;0.10;;;2.90;99.90;;;;;;6197604;23;20119;-93
2023/01/03 06:31:39;;;;;;;;;;;;;;;;;;;;;
2023/01/03 06:34:29;;;;;;;;;;;;;;;;;;;;;
2023/01/03 06:37:09;;;;;;;0.00;0.00;;;2.80;99.90;;;;;;6202428;23;20512;-92
2023/01/03 06:40:05;;;;;;;;;;;;;;;;;;;;;
2023/01/03 06:42:49;;;;;;;;;;;;;;;;;;;;;
2023/01/03 06:53:44;;;;;;;0.10;0.10;;;2.80;99.90;;;;;;6200097;23;20102;-91
2023/01/03 06:56:28;;;;;;;;;;;;;;;;;;;;;
2023/01/03 06:59:08;;;;;;;0.28;0.28;;;2.90;99.90;;;;;;6222766;23;20016;-91
2023/01/03 07:08:00;;;;;;;0.10;0.10;;;3.00;99.90;;;;;;6190935;23;20020;-93
2023/01/03 07:10:29;;;;;;;1.33;0.50;;;3.00;99.90;;;;;;6152403;23;20027;-93
2023/01/03 07:16:03;;;;;;;0.35;0.30;;;4.10;99.90;;;;;;6201393;23;20020;-92
2023/01/03 07:18:49;;;;;;;;;;;;;;;;;;;;;
2023/01/03 07:21:21;;;;;;;0.45;0.43;;;3.20;99.90;;;;;;6179011;23;20022;-92
2023/01/03 07:24:17;;;;;;;0.22;0.22;;;3.30;99.90;;;;;;6198068;23;20024;-93
2023/01/03 07:26:46;;;;;;;0.10;0.10;;;3.30;99.90;;;;;;6198719;23;20050;-92
2023/01/03 07:29:25;;;;;;;0.10;0.10;;;4.00;99.90;;;;;;6198094;23;20020;-92
2023/01/03 07:31:53;;;;;;;2.38;0.13;;;3.50;99.90;;;;;;6198661;23;20040;-93
2023/01/03 07:34:34;;;;;;;1.17;0.55;;;3.80;99.90;;;;;;6219384;22;20027;-92
2023/01/03 07:37:00;;;;;;;1.00;0.38;;;3.50;99.90;;;;;;6200583;22;20084;-92
2023/01/03 07:39:55;;;;;;;0.20;0.20;;;4.10;99.90;;;;;;6232591;23;20016;-94
2023/01/03 07:49:40;;;;;;;0.10;0.10;;;3.80;99.90;;;;;;6211893;23;20048;-96
2023/01/03 07:53:03;;;;;;;;;;;;;;;;;;;;;
2023/01/03 07:56:24;;;;;;;;;;;;;;;;;;;;;
2023/01/03 07:59:41;;;;;;;;;;;;;;;;;;;;;
2023/01/03 08:02:51;;;;;;;5.88;1.55;;;4.00;99.90;;;;;;6222765;23;20020;-94
2023/01/03 08:19:35;;;;;;;;;;;;;;;;;;;;;
2023/01/03 08:30:29;;;;;;;;;;;;;;;;;;;;;
2023/01/03 08:38:00;;;;;;;0.52;0.52;;;4.50;99.90;;;;;;5794784;24;20022;-95
2023/01/03 09:25:43;;;;;;;;;;;;;;;;;;;;;
2023/01/03 09:29:12;;;;;;;2.92;1.15;;;4.90;99.90;;;;;;6188151;23;20050;-92
2023/01/03 09:32:16;;;;;;;;;;;;;;;;;;;;;
2023/01/03 09:35:41;;;;;;;;;;;;;;;;;;;;;
2023/01/03 09:39:46;;;;;;;;;;;;;;;;;;;;;
2023/01/03 09:45:49;;;;;;;;;;;;;;;;;;;;;
2023/01/03 09:49:27;;;;;;;;;;;;;;;;;;;;;
2023/01/03 10:14:12;;;;;;;;;;;;;;;;;;;;;
2023/01/03 13:44:36;;;;;;;;;;;;;;;;;;;;;
2023/01/03 13:48:07;;;;;;;;;;;;;;;;;;;;;
2023/01/03 13:57:53;;;;;;;0.10;0.10;;;7.40;99.90;;;;;;6224837;23;20078;-93
2023/01/03 14:00:41;;;;;;;;;;;;;;;;;;;;;
2023/01/03 14:03:47;;;;;;;;;;;;;;;;;;;;;
2023/01/03 14:07:03;;;;;;;0.00;0.00;;;7.20;99.90;;;;;;6227687;23;20087;-93
2023/01/03 14:10:31;;;;;;;;;;;;;;;;;;;;;
2023/01/03 14:13:46;;;;;;;0.20;0.10;;;7.40;99.90;;;;;;6218584;23;20092;-90
2023/01/03 14:16:54;;;;;;;0.05;0.05;;;7.40;99.90;;;;;;6205451;23;20016;-93
2023/01/03 14:19:36;;;;;;;0.10;0.00;;;7.40;99.90;;;;;;6087867;23;20022;-89
2023/01/03 14:22:19;;;;;;;1.17;0.20;;;7.40;99.90;;;;;;6207003;23;20047;-92
2023/01/03 14:25:22;;;;;;;1.15;0.30;;;7.50;99.90;;;;;;6207138;23;20020;-93
2023/01/03 14:27:58;;;;;;;;;;;;;;;;;;;;;
2023/01/03 14:30:40;;;;;;;;;;;;;;;;;;;;;
2023/01/03 14:33:59;;;;;;;;;;;;;;;;;;;;;
2023/01/03 14:36:50;;;;;;;0.15;0.15;;;7.50;99.90;;;;;;6223289;23;20095;-94
2023/01/03 14:43:22;;;;;;;;;;;;;;;;;;;;;
2023/01/03 14:53:49;;;;;;;;;;;;;;;;;;;;;
2023/01/03 15:01:33;;;;;;;;;;;;;;;;;;;;;
2023/01/03 15:04:25;;;;;;;0.00;0.00;;;7.60;99.90;;;;;;6198233;23;20050;-94
2023/01/03 15:14:50;;;;;;;0.38;0.22;;;7.70;99.90;;;;;;6056619;23;20080;-92
2023/01/03 15:17:28;;;;;;;0.63;0.40;;;7.60;99.90;;;;;;6173509;23;20023;-90
2023/01/03 15:19:59;;;;;;;0.15;0.15;;;7.60;99.90;;;;;;6223968;23;20023;-88
2023/01/03 15:23:01;;;;;;;0.00;0.00;;;7.60;99.90;;;;;;6199678;23;20012;-91
2023/01/03 15:26:05;;;;;;;0.00;0.00;;;7.60;99.90;;;;;;6197669;23;20020;-89
2023/01/03 15:32:00;;;;;;;0.22;0.22;;;7.60;99.90;;;;;;6151915;23;20403;-89
2023/01/03 15:35:24;;;;;;;;;;;;;;;;;;;;;
2023/01/03 15:48:57;;;;;;;0.20;0.20;;;7.60;99.90;;;;;;6243209;23;20350;-89
2023/01/03 15:52:21;;;;;;;;;;;;;;;;;;;;;
2023/01/03 15:54:51;;;;;;;0.20;0.20;;;7.70;99.90;;;;;;6227548;23;20086;-89
2023/01/03 15:58:09;;;;;;;;;;;;;;;;;;;;;
2023/01/03 16:01:48;;;;;;;;;;;;;;;;;;;;;
2023/01/03 16:07:41;;;;;;;;;;;;;;;;;;;;;
2023/01/03 16:10:23;;;;;;;;;;;;;;;;;;;;;
2023/01/03 16:19:38;;;;;;;;;;;;;;;;;;;;;
2023/01/03 16:29:12;;;;;;;;;;;;;;;;;;;;;
2023/01/03 16:38:00;;;;;;;;;;;7.40;99.90;;;;;;6175605;23;20009;-94
2023/01/03 16:41:39;;;;;;;0.13;0.10;;;7.40;99.90;;;;;;6161149;23;19920;-96
2023/01/03 16:48:32;;;;;;;;;;;;;;;;;;;;;
2023/01/03 16:51:38;;;;;;;;;;;;;;;;;;;;;
2023/01/03 16:58:26;;;;;;;;;;;;;;;;;;;;;
2023/01/03 17:01:13;;;;;;;0.10;0.10;;;7.30;99.90;;;;;;6176662;23;20001;-96
2023/01/03 17:08:22;;;;;;;0.00;0.00;;;7.20;99.90;;;;;;6151036;23;20049;-96
2023/01/03 17:14:50;;;;;;;;;;;;;;;;;;;;;
2023/01/03 17:29:29;;;;;;;0.55;0.30;;;7.20;99.90;;;;;;6289195;22;20072;-96
2023/01/03 17:31:58;;;;;;;0.20;0.10;;;7.20;99.90;;;;;;6235767;22;20034;-95
2023/01/03 17:41:33;;;;;;;;;;;;;;;;;;;;;
2023/01/03 17:49:47;;;;;;;5.68;0.85;;;7.20;99.90;;;;;;6258363;22;20050;-94
2023/01/03 17:52:28;;;;;;;0.70;0.32;;;7.20;99.90;;;;;;6228523;23;20020;-96
2023/01/03 17:55:40;;;;;;;0.00;0.00;;;7.20;99.90;;;;;;6230249;23;20020;-95
2023/01/03 18:09:47;;;;;;;0.63;0.20;;;7.20;99.90;;;;;;6261042;22;20024;-96
2023/01/03 18:12:31;;;;;;;0.82;0.45;;;7.20;99.90;;;;;;6250718;23;20098;-96
2023/01/03 18:15:21;;;;;;;0.40;0.33;;;7.30;99.90;;;;;;6249915;23;20012;-96
2023/01/03 18:49:10;;;;;;;0.00;0.00;;;7.50;99.90;;;;;;6177901;22;20026;-93
2023/01/03 18:51:52;;;;;;;;;;;;;;;;;;;;;
2023/01/03 18:54:21;;;;;;;3.72;0.90;;;7.50;99.90;;;;;;6260026;22;20044;-95
2023/01/03 18:57:11;;;;;;;3.40;0.90;;;7.60;99.90;;;;;;6262117;22;20016;-94
2023/01/03 18:59:58;;;;;;;5.25;1.65;;;7.50;99.90;;;;;;6220120;22;20010;-96
2023/01/03 19:02:41;;;;;;;0.00;0.00;;;7.50;99.90;;;;;;6242625;22;20094;-96
2023/01/03 19:05:54;;;;;;;0.20;0.00;;;7.50;99.90;;;;;;6237550;22;20047;-96
2023/01/03 19:08:28;;;;;;;0.10;0.10;;;7.50;99.90;;;;;;6256758;22;20016;-94
2023/01/03 19:11:06;;;;;;;0.00;0.00;;;7.50;99.90;;;;;;6230146;22;20015;-96
2023/01/03 19:13:59;;;;;;;0.05;0.05;;;7.50;99.90;;;;;;6234632;22;20019;-96
2023/01/03 19:17:03;;;;;;;;;;;;;;;;;;;;;
2023/01/03 19:29:01;;;;;;;0.10;0.08;;;7.50;99.90;;;;;;6220026;22;20024;-94
2023/01/03 19:31:42;;;;;;;0.00;0.00;;;7.40;99.90;;;;;;6233784;22;20046;-96
2023/01/03 19:34:50;;;;;;;0.20;0.10;;;7.40;99.90;;;;;;6234109;22;20446;-96
2023/01/03 19:37:21;;;;;;;0.90;0.20;;;7.40;99.90;;;;;;6224598;22;20010;-96
2023/01/03 19:40:02;;;;;;;;;;;;;;;;;;;;;
2023/01/03 19:43:02;;;;;;;0.03;0.03;;;7.40;99.90;;;;;;6268378;22;20022;-96
2023/01/03 19:45:37;;;;;;;1.02;0.45;;;7.40;99.90;;;;;;6244868;22;20007;-96
2023/01/03 19:49:05;;;;;;;0.00;0.00;;;7.40;99.90;;;;;;6274715;22;20022;-96
2023/01/03 19:52:07;;;;;;;2.67;0.25;;;7.40;99.90;;;;;;6261265;22;20047;-96
2023/01/03 19:58:21;;;;;;;0.00;0.00;;;7.60;99.90;;;;;;6230904;22;20033;-96
2023/01/03 20:01:10;;;;;;;0.00;0.00;;;7.40;99.90;;;;;;6225314;22;20031;-96
2023/01/03 20:15:47;;;;;;;0.10;0.10;;;7.50;99.90;;;;;;6238150;22;20028;-96
2023/01/03 20:18:28;;;;;;;0.00;0.00;;;7.50;99.90;;;;;;6231339;23;20063;-96
2023/01/03 20:21:17;;;;;;;0.00;0.00;;;7.50;99.90;;;;;;6230536;23;20016;-96
2023/01/03 20:24:07;;;;;;;;;;;;;;;;;;;;;
2023/01/03 20:26:48;;;;;;;;;;;;;;;;;;;;;
2023/01/03 20:29:22;;;;;;;0.00;0.00;;;7.50;99.90;;;;;;6259373;23;20069;-95
2023/01/03 20:32:02;;;;;;;0.00;0.00;;;7.50;99.90;;;;;;6229848;23;20495;-96
2023/01/03 20:35:23;;;;;;;0.00;0.00;;;7.60;99.90;;;;;;6238033;23;20020;-96
2023/01/03 20:38:06;;;;;;;;;;;;;;;;;;;;;
2023/01/03 20:43:54;;;;;;;0.30;0.30;;;7.70;99.90;;;;;;6244717;22;20055;-96
2023/01/03 20:46:38;;;;;;;0.32;0.32;;;7.70;99.90;;;;;;6199200;23;20020;-96
2023/01/03 20:49:29;;;;;;;9.65;0.73;;;7.70;99.90;;;;;;6228985;23;20016;-96
2023/01/03 20:52:11;;;;;;;0.10;0.10;;;7.70;99.90;;;;;;6199511;23;20069;-96
2023/01/03 20:54:44;;;;;;;0.00;0.00;;;7.80;99.90;;;;;;6223163;23;20096;-96
2023/01/03 20:57:25;;;;;;;;;;;;;;;;;;;;;
2023/01/03 21:00:02;;;;;;;0.00;0.00;;;7.80;99.90;;;;;;6243919;23;20023;-96
2023/01/03 21:03:05;;;;;;;0.03;0.00;;;7.70;99.90;;;;;;6209900;23;20023;-91
2023/01/03 21:05:53;;;;;;;0.00;0.00;;;7.80;99.90;;;;;;6208366;23;20051;-92
2023/01/03 21:11:12;;;;;;;0.35;0.35;;;7.70;99.90;;;;;;6221719;23;20020;-90
2023/01/03 21:13:48;;;;;;;;;;;;;;;;;;;;;
2023/01/03 21:16:47;;;;;;;0.00;0.00;;;7.90;99.90;;;;;;6219936;23;20024;-91
2023/01/03 21:22:35;;;;;;;;;;;;;;;;;;;;;
2023/01/03 21:28:59;;;;;;;0.00;0.00;;;7.90;99.90;;;;;;6209904;22;20037;-96
2023/01/03 21:32:02;;;;;;;;;;;;;;;;;;;;;
2023/01/03 21:34:40;;;;;;;0.03;0.03;;;7.90;99.90;;;;;;6233620;23;20004;-96
2023/01/03 21:37:16;;;;;;;8.48;1.20;;;7.90;99.90;;;;;;6175054;23;20095;-96
2023/01/03 21:39:41;;;;;;;0.00;0.00;;;8.00;99.90;;;;;;6196102;23;20017;-95
2023/01/03 21:45:21;;;;;;;0.10;0.10;;;7.90;99.90;;;;;;6257960;22;20020;-96
2023/01/03 21:47:52;;;;;;;0.52;0.25;;;7.90;99.90;;;;;;6212906;22;20055;-96
2023/01/03 21:50:21;;;;;;;0.00;0.00;;;8.00;99.90;;;;;;6238829;22;20026;-95
2023/01/03 21:52:52;;;;;;;0.00;0.00;;;7.90;99.90;;;;;;6236486;22;20016;-96
2023/01/03 21:55:25;;;;;;;1.83;0.68;;;7.90;99.90;;;;;;6233772;22;20015;-96
2023/01/03 21:58:02;;;;;;;0.00;0.00;;;7.90;99.90;;;;;;6238473;22;20020;-96
2023/01/03 22:00:47;;;;;;;;;;;;;;;;;;;;;
2023/01/03 22:06:12;;;;;;;0.30;0.00;;;7.90;99.90;;;;;;6257127;22;20446;-95
2023/01/03 22:08:39;;;;;;;0.00;0.00;;;7.80;99.90;;;;;;6232670;22;20077;-96
2023/01/03 22:14:24;;;;;;;0.05;0.05;;;7.90;99.90;;;;;;6216221;22;20016;-95
2023/01/03 22:17:12;;;;;;;0.73;0.45;;;7.90;99.90;;;;;;6255772;22;20458;-96
2023/01/03 22:19:44;;;;;;;1.10;0.45;;;7.80;99.90;;;;;;6236112;22;20042;-95
2023/01/03 22:22:13;;;;;;;0.03;0.03;;;7.80;99.90;;;;;;6232569;22;20015;-95
2023/01/03 22:24:59;;;;;;;0.00;0.00;;;7.90;99.90;;;;;;6231595;22;20016;-96
2023/01/03 22:27:40;;;;;;;;;;;;;;;;;;;;;
2023/01/03 22:30:13;;;;;;;3.13;1.00;;;7.90;99.90;;;;;;6258177;22;20015;-94
2023/01/03 22:32:44;;;;;;;0.15;0.00;;;7.90;99.90;;;;;;6259302;22;20099;-96
2023/01/03 22:35:17;;;;;;;0.00;0.00;;;7.90;99.90;;;;;;6234280;22;20011;-94
2023/01/03 22:38:03;;;;;;;0.52;0.52;;;7.90;99.90;;;;;;6236095;22;20050;-96
2023/01/03 22:40:41;;;;;;;;;;;;;;;;;;;;;
2023/01/03 22:43:16;;;;;;;0.00;0.00;;;7.90;99.90;;;;;;6263869;22;20016;-96
2023/01/03 22:46:21;;;;;;;0.00;0.00;;;7.90;99.90;;;;;;6262235;22;20020;-96
2023/01/03 22:48:45;;;;;;;0.57;0.35;;;7.90;99.90;;;;;;6258824;22;20016;-96
2023/01/03 22:51:41;;;;;;;0.17;0.00;;;7.90;99.90;;;;;;6235513;22;20043;-96
2023/01/03 22:54:12;;;;;;;0.00;0.00;;;7.90;99.90;;;;;;6236934;22;20117;-95
2023/01/03 22:56:50;;;;;;;14.65;0.52;;;7.90;99.90;;;;;;6211504;22;20086;-96
2023/01/03 22:59:19;;;;;;;0.00;0.00;;;7.90;99.90;;;;;;6262285;22;20071;-96
2023/01/03 23:01:49;;;;;;;0.00;0.00;;;7.90;99.90;;;;;;6234373;22;20024;-96
2023/01/03 23:04:18;;;;;;;0.93;0.47;;;7.90;99.90;;;;;;6257524;22;20020;-96
2023/01/03 23:06:44;;;;;;;0.00;0.00;;;7.90;99.90;;;;;;6234147;22;20020;-95
2023/01/03 23:09:15;;;;;;;0.00;0.00;;;7.90;99.90;;;;;;6234377;22;20022;-95
2023/01/03 23:14:26;;;;;;;1.65;0.68;;;7.90;99.90;;;;;;6260141;22;20030;-95
2023/01/03 23:19:47;;;;;;;;;;;7.90;99.90;;;;;;6260703;22;20315;-96
2023/01/03 23:22:42;;;;;;;0.65;0.00;;;7.90;99.90;;;;;;6238208;22;19926;-96
2023/01/03 23:25:32;;;;;;;;;;;;;;;;;;;;;
2023/01/03 23:28:12;;;;;;;0.03;0.03;;;7.80;99.90;;;;;;6244500;22;20024;-95
2023/01/03 23:30:43;;;;;;;0.00;0.00;;;7.80;99.90;;;;;;6243158;22;20027;-96
2023/01/03 23:33:29;;;;;;;0.00;0.00;;;7.80;99.90;;;;;;6265959;22;20023;-96
2023/01/03 23:36:09;;;;;;;0.00;0.00;;;7.80;99.90;;;;;;6267506;22;20023;-96
2023/01/03 23:38:45;;;;;;;0.00;0.00;;;7.90;99.90;;;;;;6247657;22;20059;-96
2023/01/03 23:41:41;;;;;;;;;;;;;;;;;;;;;
2023/01/03 23:44:29;;;;;;;;;;;;;;;;;;;;;
2023/01/03 23:47:13;;;;;;;;;;;;;;;;;;;;;
2023/01/03 23:49:51;;;;;;;0.00;0.00;;;7.90;99.90;;;;;;6271067;22;20050;-96
2023/01/03 23:52:27;;;;;;;;;;;;;;;;;;;;;
2023/01/03 23:58:12;;;;;;;0.10;0.10;;;7.90;99.90;;;;;;6273163;22;20019;-96
